Time;durP1;ratioP1;P1;durP2;ratioP2;P2;SDS_P1;SDS_P2;PMS_P1;PMS_P2;Temp;Humidity;BMP_temperature;BMP_pressure;BME280_temperature;BME280_humidity;BME280_pressure;Samples;Min_cycle;Max_cycle;Signal;HPM_P1;HPM_P2
2022/08/24 00:01:37;;;;;;;;;;;;;;;21.97;69.13;99763.22;4375505;32;32647;-85
2022/08/24 00:04:05;;;;;;;;;;;;;;;22.10;68.66;99771.84;4375922;32;34912;-84
2022/08/24 00:06:33;;;;;;;;;;;;;;;22.37;67.79;99783.78;4374696;32;34887;-85
2022/08/24 00:09:01;;;;;;;;;;;;;;;22.07;68.99;99776.66;4376598;32;33614;-85
2022/08/24 00:11:30;;;;;;;;;;;;;;;22.37;67.85;99778.41;4379275;32;35022;-86
2022/08/24 00:13:57;;;;;;;;;;;;;;;22.14;68.69;99778.69;4375505;32;33731;-85
2022/08/24 00:16:25;;;;;;;;;;;;;;;22.37;67.84;99778.41;4375692;32;34062;-85
2022/08/24 00:18:54;;;;;;;;;;;;;;;22.37;67.86;99773.03;4387748;32;32806;-85
2022/08/24 00:21:22;;;;;;;;;;;;;;;22.44;67.48;99780.34;4375712;32;34609;-86
2022/08/24 00:23:50;;;;;;;;;;;;;;;22.43;67.58;99769.75;4385718;32;34978;-85
2022/08/24 00:26:18;;;;;;;;;;;;;;;22.14;68.69;99769.78;4384503;32;33583;-86
2022/08/24 00:28:56;;;;;;;;;;;;;;;22.42;67.65;99765.37;4376513;32;34347;-85
2022/08/24 00:31:24;;;;;;;;;;;;;;;22.54;67.24;99769.56;4374995;32;33132;-85
2022/08/24 00:33:51;;;;;;;;;;;;;;;22.34;67.97;99766.06;4381849;32;34949;-85
2022/08/24 00:36:20;;;;;;;;;;;;;;;22.48;67.44;99762.09;4374100;32;33368;-86
2022/08/24 00:38:49;;;;;;;;;;;;;;;22.35;67.97;99764.22;4387142;32;33636;-85
2022/08/24 00:41:17;;;;;;;;;;;;;;;22.45;67.65;99765.06;4390120;32;33097;-85
2022/08/24 00:43:53;;;;;;;;;;;;;;;22.42;67.65;99770.75;4389973;32;33664;-85
2022/08/24 00:46:27;;;;;;;;;;;;;;;22.44;67.59;99763.38;4389904;32;34763;-86
2022/08/24 00:48:58;;;;;;;;;;;;;;;22.03;69.23;99770.75;4390002;32;33606;-85
2022/08/24 00:51:29;;;;;;;;;;;;;;;22.04;69.21;99772.44;4389896;32;35538;-85
2022/08/24 00:54:00;;;;;;;;;;;;;;;21.85;69.96;99767.88;4389232;32;33819;-85
2022/08/24 00:56:31;;;;;;;;;;;;;;;22.07;69.14;99766.75;4377551;32;34032;-86
2022/08/24 00:59:01;;;;;;;;;;;;;;;21.80;70.27;99769.31;4391728;32;33924;-85
2022/08/24 01:01:30;;;;;;;;;;;;;;;21.67;70.69;99767.72;4379590;32;33161;-85
2022/08/24 01:03:58;;;;;;;;;;;;;;;21.69;70.64;99768.41;4389878;32;34294;-85
2022/08/24 01:06:26;;;;;;;;;;;;;;;21.99;69.64;99755.88;4391584;32;34622;-85
2022/08/24 01:08:58;;;;;;;;;;;;;;;21.81;70.03;99744.97;4392113;32;33549;-86
2022/08/24 01:11:27;;;;;;;;;;;;;;;22.12;69.14;99750.22;4378147;32;33296;-85
2022/08/24 01:14:01;;;;;;;;;;;;;;;21.91;69.72;99750.34;4391663;32;34631;-86
2022/08/24 01:19:27;;;;;;;;;;;;;;;21.65;71.16;99750.03;4390827;32;33511;-86
2022/08/24 01:22:14;;;;;;;;;;;;;;;21.72;70.87;99752.03;4391159;32;33764;-86
2022/08/24 01:24:43;;;;;;;;;;;;;;;22.09;69.47;99758.56;4392418;32;34272;-86
2022/08/24 01:27:14;;;;;;;;;;;;;;;22.00;69.40;99760.25;4391669;32;34178;-86
2022/08/24 01:29:44;;;;;;;;;;;;;;;22.08;69.25;99768.47;4391346;32;32691;-86
2022/08/24 01:32:13;;;;;;;;;;;;;;;22.11;69.21;99773.56;4379103;32;33252;-86
2022/08/24 01:34:40;;;;;;;;;;;;;;;22.20;68.94;99771.87;4378976;32;34158;-85
2022/08/24 01:37:09;;;;;;;;;;;;;;;22.15;69.06;99777.69;4391686;32;33413;-86
2022/08/24 01:39:43;;;;;;;;;;;;;;;22.24;68.75;99778.69;4404304;32;34222;-85
2022/08/24 01:42:14;;;;;;;;;;;;;;;22.08;69.27;99771.16;4394180;32;33547;-86
2022/08/24 01:44:44;;;;;;;;;;;;;;;22.23;68.84;99767.09;4406644;32;34022;-86
2022/08/24 01:47:12;;;;;;;;;;;;;;;22.09;69.19;99774.69;4405184;32;34644;-86
2022/08/24 01:49:42;;;;;;;;;;;;;;;22.24;68.55;99781.38;4406921;32;33565;-85
2022/08/24 01:52:11;;;;;;;;;;;;;;;22.10;69.16;99782.59;4406716;32;34779;-86
2022/08/24 01:54:39;;;;;;;;;;;;;;;22.04;69.42;99788.56;4406558;32;33850;-86
2022/08/24 01:57:10;;;;;;;;;;;;;;;22.22;68.82;99796.81;4392413;32;33237;-86
2022/08/24 01:59:44;;;;;;;;;;;;;;;22.31;68.39;99787.03;4406491;32;34215;-86
2022/08/24 02:02:15;;;;;;;;;;;;;;;22.18;68.97;99790.88;4406133;32;34067;-85
2022/08/24 02:04:43;;;;;;;;;;;;;;;22.45;67.77;99797.34;4401538;32;34432;-85
2022/08/24 02:07:14;;;;;;;;;;;;;;;22.24;68.54;99797.50;4403554;32;34002;-86
2022/08/24 02:09:42;;;;;;;;;;;;;;;22.19;68.96;99797.94;4406356;32;32202;-86
2022/08/24 02:12:12;;;;;;;;;;;;;;;22.24;68.63;99794.81;4394151;32;33257;-86
2022/08/24 02:14:40;;;;;;;;;;;;;;;22.07;69.23;99788.25;4406244;32;33380;-85
2022/08/24 02:17:08;;;;;;;;;;;;;;;22.22;68.79;99797.66;4405804;32;34650;-86
2022/08/24 02:19:36;;;;;;;;;;;;;;;21.99;69.45;99790.81;4406434;32;33496;-86
2022/08/24 02:22:05;;;;;;;;;;;;;;;22.08;69.03;99792.66;4406603;32;33865;-86
2022/08/24 02:24:35;;;;;;;;;;;;;;;21.99;69.51;99794.34;4406549;32;33705;-86
2022/08/24 02:27:04;;;;;;;;;;;;;;;22.26;68.45;99797.34;4406663;32;34195;-86
2022/08/24 02:29:32;;;;;;;;;;;;;;;22.26;68.46;99798.19;4392959;32;33193;-85
2022/08/24 02:32:00;;;;;;;;;;;;;;;22.29;68.34;99794.41;4406533;32;33502;-86
2022/08/24 02:34:28;;;;;;;;;;;;;;;22.26;68.37;99798.19;4405940;32;33516;-85
2022/08/24 02:36:56;;;;;;;;;;;;;;;22.45;67.50;99797.34;4406171;32;33361;-85
2022/08/24 02:39:28;;;;;;;;;;;;;;;22.03;69.00;99792.25;4405421;32;33452;-85
2022/08/24 02:41:56;;;;;;;;;;;;;;;22.24;68.34;99798.34;4406101;32;34191;-85
2022/08/24 02:44:23;;;;;;;;;;;;;;;22.08;69.03;99795.37;4393658;32;33273;-85
2022/08/24 02:46:52;;;;;;;;;;;;;;;22.10;68.81;99798.75;4393603;32;33172;-85
2022/08/24 02:49:22;;;;;;;;;;;;;;;22.28;68.31;99803.47;4406223;32;33185;-85
2022/08/24 02:51:49;;;;;;;;;;;;;;;22.30;68.16;99805.00;4406346;32;34935;-85
2022/08/24 02:54:17;;;;;;;;;;;;;;;22.17;68.47;99799.06;4406207;32;33434;-85
2022/08/24 02:56:45;;;;;;;;;;;;;;;22.08;69.05;99791.81;4406104;32;33556;-85
2022/08/24 02:59:15;;;;;;;;;;;;;;;22.38;67.81;99801.63;4406055;32;32246;-85
2022/08/24 03:01:44;;;;;;;;;;;;;;;21.98;69.54;99802.53;4404900;32;34378;-85
2022/08/24 03:04:14;;;;;;;;;;;;;;;22.04;69.35;99798.47;4405238;32;34961;-85
2022/08/24 03:06:42;;;;;;;;;;;;;;;22.20;68.72;99799.62;4406248;32;33648;-85
2022/08/24 03:09:10;;;;;;;;;;;;;;;21.92;69.81;99800.41;4405370;32;32356;-85
2022/08/24 03:11:40;;;;;;;;;;;;;;;22.10;69.24;99793.38;4405703;32;34571;-85
2022/08/24 03:14:12;;;;;;;;;;;;;;;21.75;70.65;99793.91;4393752;32;33742;-85
2022/08/24 03:16:40;;;;;;;;;;;;;;;22.01;69.68;99787.97;4405547;32;34212;-85
2022/08/24 03:19:08;;;;;;;;;;;;;;;21.83;70.32;99787.81;4406248;32;33961;-84
2022/08/24 03:21:36;;;;;;;;;;;;;;;21.71;70.98;99797.84;4406452;32;34461;-85
2022/08/24 03:24:04;;;;;;;;;;;;;;;21.76;71.00;99792.06;4406075;32;34956;-85
2022/08/24 03:26:32;;;;;;;;;;;;;;;21.87;70.50;99797.31;4405967;32;34457;-85
2022/08/24 03:29:00;;;;;;;;;;;;;;;21.86;70.52;99790.22;4405806;32;33516;-85
2022/08/24 03:31:30;;;;;;;;;;;;;;;22.05;69.73;99792.94;4405869;32;33154;-86
2022/08/24 03:33:58;;;;;;;;;;;;;;;22.05;69.77;99795.63;4405333;32;34196;-86
2022/08/24 03:36:26;;;;;;;;;;;;;;;21.91;70.11;99798.72;4393301;32;33272;-85
2022/08/24 03:38:55;;;;;;;;;;;;;;;21.90;70.37;99800.56;4400415;32;33573;-85
2022/08/24 03:41:22;;;;;;;;;;;;;;;21.75;71.09;99798.44;4382821;32;32855;-85
2022/08/24 03:43:54;;;;;;;;;;;;;;;21.87;70.50;99792.78;4376770;32;35082;-85
2022/08/24 03:46:25;;;;;;;;;;;;;;;21.86;70.92;99785.72;4375932;32;34473;-86
2022/08/24 03:48:53;;;;;;;;;;;;;;;21.83;70.71;99795.87;4375590;32;32638;-85
2022/08/24 03:51:22;;;;;;;;;;;;;;;21.95;70.17;99792.09;4375960;32;32791;-85
2022/08/24 03:53:50;;;;;;;;;;;;;;;21.88;70.32;99788.25;4388074;32;35073;-84
2022/08/24 03:56:19;;;;;;;;;;;;;;;21.79;70.93;99789.06;4365834;32;34286;-84
2022/08/24 03:58:48;;;;;;;;;;;;;;;22.06;69.64;99791.94;4375839;32;34167;-84
2022/08/24 04:01:16;;;;;;;;;;;;;;;22.13;69.43;99792.28;4375787;32;33795;-84
2022/08/24 04:03:47;;;;;;;;;;;;;;;21.55;71.59;99790.28;4369492;32;33481;-84
2022/08/24 04:06:16;;;;;;;;;;;;;;;21.73;70.84;99796.72;4388004;32;32682;-84
2022/08/24 04:08:46;;;;;;;;;;;;;;;21.71;70.79;99798.69;4375403;32;33750;-84
2022/08/24 04:11:16;;;;;;;;;;;;;;;21.80;70.36;99796.19;4386375;32;34026;-85
2022/08/24 04:13:45;;;;;;;;;;;;;;;21.96;69.96;99796.47;4358438;32;33769;-84
2022/08/24 04:16:19;;;;;;;;;;;;;;;22.10;69.35;99798.75;4377344;32;35099;-84
2022/08/24 04:18:49;;;;;;;;;;;;;;;22.07;69.52;99798.16;4368203;32;34381;-84
2022/08/24 04:21:19;;;;;;;;;;;;;;;22.06;69.59;99796.47;4373948;32;32470;-84
2022/08/24 04:23:49;;;;;;;;;;;;;;;22.02;69.65;99795.06;4387528;32;34273;-84
2022/08/24 04:26:18;;;;;;;;;;;;;;;22.20;68.89;99794.25;4375152;32;34335;-85
2022/08/24 04:29:08;;;;;;;;;;;;;;;22.18;69.06;99796.25;4351419;32;33494;-86
2022/08/24 04:31:40;;;;;;;;;;;;;;;22.28;68.68;99795.41;4378523;32;34842;-86
2022/08/24 04:34:10;;;;;;;;;;;;;;;22.33;68.59;99803.87;4369018;32;33694;-86
2022/08/24 04:36:41;;;;;;;;;;;;;;;22.18;69.19;99801.63;4376895;32;33575;-86
2022/08/24 04:39:08;;;;;;;;;;;;;;;22.20;69.25;99799.62;4403880;32;32640;-87
2022/08/24 04:41:39;;;;;;;;;;;;;;;21.60;71.28;99790.75;4379469;32;33103;-86
2022/08/24 04:44:10;;;;;;;;;;;;;;;22.23;69.25;99791.28;4391744;32;33044;-86
2022/08/24 04:46:43;;;;;;;;;;;;;;;22.33;68.93;99795.81;4391853;32;33386;-85
2022/08/24 04:49:11;;;;;;;;;;;;;;;22.37;68.54;99790.00;4379672;32;33290;-85
2022/08/24 04:51:39;;;;;;;;;;;;;;;21.93;70.08;99792.25;4391839;32;34070;-85
2022/08/24 04:54:07;;;;;;;;;;;;;;;21.87;70.58;99794.63;4390039;32;33609;-85
2022/08/24 04:56:38;;;;;;;;;;;;;;;22.21;69.28;99795.94;4391908;32;34069;-85
2022/08/24 04:59:06;;;;;;;;;;;;;;;22.34;68.90;99805.56;4391773;32;33653;-86
2022/08/24 05:01:36;;;;;;;;;;;;;;;22.41;68.64;99812.09;4392150;32;34840;-85
2022/08/24 05:04:04;;;;;;;;;;;;;;;22.12;69.97;99802.16;4391922;32;33731;-85
2022/08/24 05:06:33;;;;;;;;;;;;;;;22.24;69.64;99794.81;4391980;32;34452;-86
2022/08/24 05:09:03;;;;;;;;;;;;;;;22.40;68.91;99795.09;4390689;32;33572;-85
2022/08/24 05:11:31;;;;;;;;;;;;;;;22.14;69.71;99793.97;4388735;32;33887;-85
2022/08/24 05:14:02;;;;;;;;;;;;;;;22.19;69.39;99797.94;4388688;32;34650;-85
2022/08/24 05:16:37;;;;;;;;;;;;;;;22.43;68.79;99788.59;4386754;32;35157;-85
2022/08/24 05:19:20;;;;;;;;;;;;;;;22.40;68.98;99792.38;4387015;32;32533;-85
2022/08/24 05:21:48;;;;;;;;;;;;;;;22.56;69.04;99794.53;4387205;32;34273;-87
2022/08/24 05:24:15;;;;;;;;;;;;;;;22.87;68.04;99797.84;4389609;32;32292;-87
2022/08/24 05:26:44;;;;;;;;;;;;;;;22.98;67.76;99794.19;4386454;32;34515;-87
2022/08/24 05:29:17;;;;;;;;;;;;;;;23.01;67.18;99783.09;4375266;32;33838;-88
2022/08/24 05:31:47;;;;;;;;;;;;;;;23.09;66.97;99795.84;4387514;32;33156;-87
2022/08/24 05:34:16;;;;;;;;;;;;;;;23.00;67.53;99797.56;4362547;32;33759;-87
2022/08/24 05:36:48;;;;;;;;;;;;;;;23.03;67.14;99799.97;4374423;32;34251;-88
2022/08/24 05:39:19;;;;;;;;;;;;;;;22.88;67.70;99802.25;4376907;32;34212;-87
2022/08/24 05:41:50;;;;;;;;;;;;;;;22.91;68.02;99798.44;4374250;32;34188;-88
2022/08/24 05:44:23;;;;;;;;;;;;;;;22.80;68.39;99801.28;4388531;32;32847;-88
2022/08/24 05:46:59;;;;;;;;;;;;;;;23.09;67.89;99802.06;4388162;32;34749;-87
2022/08/24 05:49:31;;;;;;;;;;;;;;;23.24;67.19;99803.28;4385255;32;32503;-86
2022/08/24 05:52:01;;;;;;;;;;;;;;;23.09;67.14;99802.06;4386760;32;32104;-87
2022/08/24 05:54:34;;;;;;;;;;;;;;;23.45;66.40;99794.09;4377374;32;33275;-86
2022/08/24 05:57:05;;;;;;;;;;;;;;;23.26;67.10;99797.72;4375757;32;34360;-87
2022/08/24 05:59:33;;;;;;;;;;;;;;;23.70;65.44;99801.53;4376982;32;33400;-87
2022/08/24 06:02:02;;;;;;;;;;;;;;;23.90;64.54;99793.31;4376072;32;33696;-87
2022/08/24 06:04:31;;;;;;;;;;;;;;;23.51;66.18;99788.13;4386226;32;34039;-87
2022/08/24 06:06:59;;;;;;;;;;;;;;;24.09;65.11;99785.06;4375405;32;35035;-88
2022/08/24 06:09:27;;;;;;;;;;;;;;;24.18;64.64;99784.16;4377805;32;31884;-87
2022/08/24 06:11:59;;;;;;;;;;;;;;;24.13;64.80;99785.63;4376668;32;34123;-87
2022/08/24 06:14:29;;;;;;;;;;;;;;;24.39;63.93;99785.69;4364112;32;34113;-88
2022/08/24 06:17:00;;;;;;;;;;;;;;;24.56;62.87;99786.69;4390506;32;34207;-88
2022/08/24 06:19:31;;;;;;;;;;;;;;;24.43;63.72;99792.50;4365755;32;32944;-88
2022/08/24 06:22:01;;;;;;;;;;;;;;;24.60;62.89;99788.94;4383558;32;33209;-88
2022/08/24 06:27:21;;;;;;;;;;;;;;;24.72;61.94;99803.84;4388199;32;31613;-87
2022/08/24 06:29:56;;;;;;;;;;;;;;;24.55;63.44;99801.19;4375445;32;31540;-88
2022/08/24 06:32:31;;;;;;;;;;;;;;;24.75;62.48;99797.28;4386043;32;33486;-86
2022/08/24 06:37:42;;;;;;;;;;;;;;;24.96;61.31;99796.91;4387265;32;34770;-87
2022/08/24 06:40:19;;;;;;;;;;;;;;;24.83;62.00;99799.19;4400571;32;33474;-88
2022/08/24 06:42:47;;;;;;;;;;;;;;;24.63;62.59;99809.34;4393573;32;33911;-86
2022/08/24 06:45:16;;;;;;;;;;;;;;;24.82;62.18;99808.31;4402459;32;34191;-85
2022/08/24 06:47:45;;;;;;;;;;;;;;;24.95;62.70;99795.22;4391197;32;31167;-85
2022/08/24 06:50:16;;;;;;;;;;;;;;;25.19;61.99;99802.66;4403383;32;33822;-85
2022/08/24 06:52:50;;;;;;;;;;;;;;;25.28;60.83;99802.53;4403665;32;34296;-84
2022/08/24 06:55:18;;;;;;;;;;;;;;;25.19;61.44;99800.81;4392866;32;33528;-85
2022/08/24 06:57:54;;;;;;;;;;;;;;;25.33;60.64;99802.06;4404047;32;35159;-84
2022/08/24 07:00:24;;;;;;;;;;;;;;;25.33;60.73;99806.62;4389644;32;35698;-84
2022/08/24 07:02:52;;;;;;;;;;;;;;;25.40;60.83;99808.53;4402377;32;34142;-84
2022/08/24 07:05:21;;;;;;;;;;;;;;;25.51;60.83;99810.91;4402334;32;34243;-85
2022/08/24 07:07:58;;;;;;;;;;;;;;;25.67;59.97;99810.13;4403284;32;35057;-85
2022/08/24 07:10:27;;;;;;;;;;;;;;;25.65;60.74;99809.47;4390519;32;32789;-85
2022/08/24 07:12:58;;;;;;;;;;;;;;;26.02;60.58;99814.50;4403514;32;34295;-84
2022/08/24 07:15:30;;;;;;;;;;;;;;;26.20;58.67;99816.19;4390837;32;34252;-85
2022/08/24 07:18:01;;;;;;;;;;;;;;;26.37;57.32;99822.50;4402669;32;34293;-85
2022/08/24 07:20:31;;;;;;;;;;;;;;;26.30;58.38;99831.28;4402616;32;33356;-85
2022/08/24 07:25:41;;;;;;;;;;;;;;;26.00;59.11;99831.91;4403368;32;33193;-84
2022/08/24 07:28:18;;;;;;;;;;;;;;;25.99;59.23;99841.03;4400254;32;33514;-84
2022/08/24 07:31:00;;;;;;;;;;;;;;;26.03;59.19;99837.00;4390497;32;32714;-84
2022/08/24 07:33:34;;;;;;;;;;;;;;;26.20;58.72;99836.00;4389868;32;33104;-84
2022/08/24 07:36:13;;;;;;;;;;;;;;;26.33;58.09;99840.06;4403688;32;34430;-84
2022/08/24 07:38:51;;;;;;;;;;;;;;;26.30;58.48;99847.53;4382437;32;33197;-84
2022/08/24 07:41:26;;;;;;;;;;;;;;;26.61;56.99;99838.78;4372193;32;32557;-84
2022/08/24 07:44:16;;;;;;;;;;;;;;;26.62;57.41;99843.16;4395141;32;33565;-84
2022/08/24 07:46:44;;;;;;;;;;;;;;;26.92;57.32;99848.91;4371703;32;34162;-85
2022/08/24 07:49:15;;;;;;;;;;;;;;;27.23;55.96;99849.91;4372908;32;32636;-86
2022/08/24 07:52:05;;;;;;;;;;;;;;;27.13;56.13;99851.97;4365316;32;33458;-90
2022/08/24 07:54:39;;;;;;;;;;;;;;;27.02;52.41;99850.44;4366357;32;33324;-87
2022/08/24 07:57:09;;;;;;;;;;;;;;;27.33;53.30;99847.00;4369068;32;33547;-88
2022/08/24 07:59:38;;;;;;;;;;;;;;;27.55;52.70;99850.84;4371560;32;34161;-84
2022/08/24 08:02:10;;;;;;;;;;;;;;;27.65;51.37;99856.03;4370857;32;33667;-84
2022/08/24 08:04:49;;;;;;;;;;;;;;;27.33;51.80;99865.13;4370265;32;35425;-84
2022/08/24 08:07:21;;;;;;;;;;;;;;;27.19;51.78;99862.09;4383716;32;30972;-83
2022/08/24 08:09:49;;;;;;;;;;;;;;;27.41;52.22;99855.13;4384546;32;33247;-84
2022/08/24 08:12:19;;;;;;;;;;;;;;;27.57;52.12;99852.34;4385940;32;31974;-83
2022/08/24 08:14:50;;;;;;;;;;;;;;;27.51;52.95;99852.19;4369548;32;33368;-84
2022/08/24 08:17:19;;;;;;;;;;;;;;;27.50;51.71;99848.66;4369661;32;33582;-84
2022/08/24 08:19:50;;;;;;;;;;;;;;;28.01;51.55;99861.81;4380283;32;33519;-88
2022/08/24 08:25:12;;;;;;;;;;;;;;;27.89;51.84;99853.25;4373508;32;32874;-84
2022/08/24 08:27:41;;;;;;;;;;;;;;;27.71;51.44;99861.63;4359871;32;31549;-84
2022/08/24 08:30:16;;;;;;;;;;;;;;;27.81;51.25;99861.41;4370881;32;33187;-83
2022/08/24 08:32:45;;;;;;;;;;;;;;;27.64;51.64;99860.62;4393016;32;32265;-87
2022/08/24 08:35:14;;;;;;;;;;;;;;;28.02;50.34;99858.97;4377896;32;33952;-88
2022/08/24 08:37:49;;;;;;;;;;;;;;;27.63;52.16;99864.37;4384868;32;32788;-87
2022/08/24 08:40:23;;;;;;;;;;;;;;;27.67;51.46;99865.69;4389810;32;33717;-83
2022/08/24 08:42:58;;;;;;;;;;;;;;;27.87;50.65;99871.59;4390836;32;31906;-82
2022/08/24 08:45:30;;;;;;;;;;;;;;;27.36;52.21;99873.78;4403949;32;33052;-82
2022/08/24 08:48:25;;;;;;;;;;;;;;;27.81;51.10;99867.69;4401465;32;33413;-82
2022/08/24 08:51:30;;;;;;;;;;;;;;;27.80;51.16;99876.00;4389520;32;33250;-83
2022/08/24 08:54:12;;;;;;;;;;;;;;;27.96;50.77;99870.50;4375096;32;33144;-82
2022/08/24 08:59:54;;;;;;;;;;;;;;;28.15;49.91;99865.66;4376458;32;34727;-82
2022/08/24 09:02:42;;;;;;;;;;;;;;;27.74;51.12;99871.31;4386548;32;35198;-82
2022/08/24 09:05:10;;;;;;;;;;;;;;;27.97;51.00;99872.22;4403072;32;33565;-82
2022/08/24 09:07:43;;;;;;;;;;;;;;;28.10;51.38;99871.63;4389943;32;32768;-82
2022/08/24 09:10:30;;;;;;;;;;;;;;;28.13;51.65;99875.84;4403273;32;34357;-82
2022/08/24 09:13:03;;;;;;;;;;;;;;;28.15;53.17;99868.38;4401057;32;34094;-82
2022/08/24 09:15:42;;;;;;;;;;;;;;;28.70;49.11;99865.47;4404609;32;32814;-82
2022/08/24 09:18:17;;;;;;;;;;;;;;;28.45;51.01;99870.25;4404950;32;34450;-83
2022/08/24 09:21:08;;;;;;;;;;;;;;;29.11;48.70;99865.13;4405848;32;33599;-83
2022/08/24 09:24:00;;;;;;;;;;;;;;;29.21;47.89;99864.87;4405183;32;33655;-83
2022/08/24 09:26:32;;;;;;;;;;;;;;;28.76;49.15;99859.28;4379105;32;33858;-83
2022/08/24 09:29:13;;;;;;;;;;;;;;;29.00;48.22;99858.25;4382726;32;32894;-83
2022/08/24 09:31:57;;;;;;;;;;;;;;;29.47;47.37;99856.22;4404343;32;35016;-82
2022/08/24 09:34:27;;;;;;;;;;;;;;;29.92;47.07;99859.81;4401631;32;33573;-82
2022/08/24 09:37:19;;;;;;;;;;;;;;;29.80;44.00;99852.09;4390437;32;32578;-82
2022/08/24 09:40:20;;;;;;;;;;;;;;;29.81;44.32;99851.06;4401416;32;34054;-84
2022/08/24 09:42:49;;;;;;;;;;;;;;;29.68;44.90;99850.09;4405025;32;34694;-84
2022/08/24 09:45:29;;;;;;;;;;;;;;;29.96;47.77;99852.91;4408053;32;34540;-84
2022/08/24 09:48:10;;;;;;;;;;;;;;;30.22;42.83;99847.81;4398098;32;33382;-85
2022/08/24 09:56:23;;;;;;;;;;;;;;;30.03;43.37;99838.34;4407776;32;33757;-85
2022/08/24 09:59:04;;;;;;;;;;;;;;;29.91;43.05;99830.88;4407162;32;33243;-85
2022/08/24 10:01:35;;;;;;;;;;;;;;;29.87;44.78;99835.03;4407480;32;34036;-85
2022/08/24 10:04:17;;;;;;;;;;;;;;;30.01;44.48;99824.09;4410516;32;34358;-85
2022/08/24 10:06:45;;;;;;;;;;;;;;;30.11;43.64;99823.78;4408228;32;34444;-85
2022/08/24 10:09:22;;;;;;;;;;;;;;;30.12;43.11;99825.47;4407359;32;33062;-85
2022/08/24 10:12:00;;;;;;;;;;;;;;;29.77;42.69;99827.19;4408637;32;33458;-85
2022/08/24 10:14:34;;;;;;;;;;;;;;;29.87;42.82;99824.16;4409008;32;34138;-84
2022/08/24 10:17:04;;;;;;;;;;;;;;;30.22;42.45;99831.47;4406981;32;33576;-84
2022/08/24 10:19:39;;;;;;;;;;;;;;;29.64;42.12;99825.13;4406266;32;33473;-85
2022/08/24 10:22:13;;;;;;;;;;;;;;;29.42;43.22;99829.59;4397013;32;32912;-84
2022/08/24 10:24:48;;;;;;;;;;;;;;;29.33;43.57;99825.28;4402508;32;34405;-84
2022/08/24 10:27:20;;;;;;;;;;;;;;;29.43;44.80;99830.44;4399515;32;34254;-84
2022/08/24 10:30:03;;;;;;;;;;;;;;;29.34;45.02;99833.28;4389868;32;33579;-84
2022/08/24 10:32:33;;;;;;;;;;;;;;;29.34;45.09;99841.44;4400965;32;32840;-84
2022/08/24 10:35:05;;;;;;;;;;;;;;;29.65;43.50;99839.56;4403266;32;34331;-83
2022/08/24 10:41:00;;;;;;;;;;;;;;;29.76;44.09;99841.78;4401694;32;33047;-84
2022/08/24 10:43:52;;;;;;;;;;;;;;;29.73;44.27;99842.19;4405016;32;34197;-84
2022/08/24 10:46:44;;;;;;;;;;;;;;;29.68;45.31;99848.19;4391705;32;33968;-83
2022/08/24 10:49:21;;;;;;;;;;;;;;;29.55;46.04;99845.28;4401851;32;32471;-84
2022/08/24 10:52:08;;;;;;;;;;;;;;;29.34;45.86;99835.13;4405125;32;34352;-85
2022/08/24 10:54:36;;;;;;;;;;;;;;;29.41;45.02;99833.34;4407035;32;32634;-84
2022/08/24 10:57:15;;;;;;;;;;;;;;;29.24;47.05;99838.12;4392651;32;33229;-84
2022/08/24 10:59:54;;;;;;;;;;;;;;;29.50;46.20;99837.66;4391101;32;33195;-84
2022/08/24 11:02:33;;;;;;;;;;;;;;;29.83;44.50;99843.56;4407973;32;33063;-84
2022/08/24 11:05:04;;;;;;;;;;;;;;;29.30;45.39;99848.28;4406006;32;33943;-84
2022/08/24 11:07:34;;;;;;;;;;;;;;;29.38;45.46;99838.31;4402416;32;33231;-84
2022/08/24 11:10:07;;;;;;;;;;;;;;;29.38;46.23;99849.19;4406023;32;34097;-84
2022/08/24 11:12:42;;;;;;;;;;;;;;;29.52;46.00;99838.31;4393805;32;33778;-83
2022/08/24 11:15:17;;;;;;;;;;;;;;;29.51;45.98;99841.22;4393806;32;32881;-83
2022/08/24 11:17:57;;;;;;;;;;;;;;;29.75;45.20;99840.94;4408894;32;35040;-84
2022/08/24 11:20:33;;;;;;;;;;;;;;;29.83;45.26;99842.72;4393087;32;33619;-84
2022/08/24 11:23:03;;;;;;;;;;;;;;;29.23;50.20;99841.03;4394952;32;32713;-83
2022/08/24 11:25:38;;;;;;;;;;;;;;;29.26;51.11;99840.69;4406784;32;33920;-83
2022/08/24 11:28:28;;;;;;;;;;;;;;;29.38;51.03;99849.19;4402277;32;33113;-82
2022/08/24 11:31:03;;;;;;;;;;;;;;;28.68;56.19;99847.69;4405712;32;34619;-82
2022/08/24 11:33:43;;;;;;;;;;;;;;;28.75;53.37;99849.47;4405781;32;33891;-84
2022/08/24 11:36:22;;;;;;;;;;;;;;;28.78;53.47;99843.66;4404572;32;32866;-83
2022/08/24 11:39:12;;;;;;;;;;;;;;;28.71;54.94;99853.56;4386179;32;34459;-82
2022/08/24 11:41:45;;;;;;;;;;;;;;;28.03;56.93;99859.78;4370281;32;34309;-83
2022/08/24 11:44:29;;;;;;;;;;;;;;;28.26;57.07;99855.25;4378417;32;31943;-82
2022/08/24 11:47:07;;;;;;;;;;;;;;;28.16;56.53;99851.91;4384081;32;32984;-82
2022/08/24 11:49:52;;;;;;;;;;;;;;;27.79;58.20;99853.47;4395274;32;33563;-82
2022/08/24 11:52:21;;;;;;;;;;;;;;;27.95;57.17;99859.84;4385739;32;32883;-83
2022/08/24 11:57:52;;;;;;;;;;;;;;;27.63;58.45;99864.37;4384469;32;33011;-90
2022/08/24 12:00:23;;;;;;;;;;;;;;;27.56;57.34;99868.78;4383554;32;33252;-89
2022/08/24 12:03:01;;;;;;;;;;;;;;;27.48;57.38;99868.81;4361652;32;34074;-89
2022/08/24 12:05:38;;;;;;;;;;;;;;;27.26;58.65;99868.53;4388146;32;32158;-89
2022/08/24 12:08:24;;;;;;;;;;;;;;;27.06;59.05;99872.59;4376357;32;32711;-89
2022/08/24 12:11:22;;;;;;;;;;;;;;;26.72;57.88;99870.91;4374014;32;32761;-89
2022/08/24 12:13:59;;;;;;;;;;;;;;;26.24;59.46;99887.94;4364037;32;33046;-89
2022/08/24 12:16:48;;;;;;;;;;;;;;;25.98;60.86;99885.34;4395518;32;32767;-88
2022/08/24 12:19:30;;;;;;;;;;;;;;;25.91;61.62;99895.94;4390270;32;33740;-88
2022/08/24 12:21:59;;;;;;;;;;;;;;;26.07;61.52;99897.88;4362096;32;33103;-89
2022/08/24 12:24:32;;;;;;;;;;;;;;;25.63;61.47;99895.28;4374809;32;35055;-89
2022/08/24 12:27:07;;;;;;;;;;;;;;;25.68;62.35;99892.94;4398765;32;32345;-90
2022/08/24 12:29:44;;;;;;;;;;;;;;;25.50;64.22;99897.59;4385029;32;33050;-89
2022/08/24 12:32:19;;;;;;;;;;;;;;;25.41;65.88;99898.56;4383842;32;33018;-90
2022/08/24 12:34:53;;;;;;;;;;;;;;;25.34;66.89;99902.91;4394158;32;33094;-89
2022/08/24 12:37:43;;;;;;;;;;;;;;;25.45;67.26;99897.25;4381916;32;34010;-89
2022/08/24 12:40:29;;;;;;;;;;;;;;;25.40;68.20;99895.03;4390671;32;34251;-87
2022/08/24 12:43:10;;;;;;;;;;;;;;;25.71;67.18;99897.19;4401702;32;35368;-89
2022/08/24 12:45:41;;;;;;;;;;;;;;;25.59;68.29;99899.34;4404802;32;33529;-88
2022/08/24 12:48:19;;;;;;;;;;;;;;;25.86;67.55;99905.56;4388530;32;32254;-89
2022/08/24 12:56:32;;;;;;;;;;;;;;;25.77;68.91;99896.56;4393441;32;33528;-88
2022/08/24 12:59:07;;;;;;;;;;;;;;;25.92;68.48;99894.09;4408356;32;33317;-90
2022/08/24 13:01:37;;;;;;;;;;;;;;;25.98;68.13;99904.28;4395795;32;34215;-89
2022/08/24 13:04:05;;;;;;;;;;;;;;;26.08;67.93;99883.34;4408365;32;33302;-89
2022/08/24 13:06:37;;;;;;;;;;;;;;;26.36;66.89;99877.66;4408459;32;32749;-89
2022/08/24 13:09:25;;;;;;;;;;;;;;;26.12;67.73;99873.88;4408549;32;32119;-89
2022/08/24 13:14:39;;;;;;;;;;;;;;;26.27;67.74;99872.22;4402474;32;36441;-89
2022/08/24 13:17:09;;;;;;;;;;;;;;;26.45;67.32;99876.69;4390285;32;34532;-89
2022/08/24 13:19:48;;;;;;;;;;;;;;;26.41;67.99;99880.72;4406012;32;33335;-89
2022/08/24 13:22:28;;;;;;;;;;;;;;;26.25;69.29;99881.50;4395253;32;33224;-89
2022/08/24 13:25:02;;;;;;;;;;;;;;;26.12;69.23;99870.34;4395417;32;32951;-89
2022/08/24 13:27:35;;;;;;;;;;;;;;;26.17;69.35;99868.81;4392358;32;33327;-89
2022/08/24 13:30:20;;;;;;;;;;;;;;;26.31;68.94;99872.75;4393477;32;31770;-89
2022/08/24 13:32:55;;;;;;;;;;;;;;;26.45;68.53;99860.44;4407689;32;34966;-89
2022/08/24 13:35:42;;;;;;;;;;;;;;;26.45;68.48;99871.28;4408101;32;32871;-89
2022/08/24 13:38:34;;;;;;;;;;;;;;;26.54;68.38;99875.69;4404206;32;35238;-89
2022/08/24 13:41:07;;;;;;;;;;;;;;;26.72;67.75;99880.91;4404730;32;32451;-89
2022/08/24 13:43:41;;;;;;;;;;;;;;;26.91;66.84;99879.72;4405466;32;33743;-89
2022/08/24 13:46:23;;;;;;;;;;;;;;;26.87;66.69;99879.25;4393598;32;33206;-89
2022/08/24 13:49:12;;;;;;;;;;;;;;;26.97;66.50;99874.50;4406849;32;35265;-89
2022/08/24 13:51:50;;;;;;;;;;;;;;;26.95;66.75;99886.50;4391859;32;32475;-90
2022/08/24 13:54:25;;;;;;;;;;;;;;;26.76;67.91;99884.97;4395647;32;32775;-90
2022/08/24 13:57:11;;;;;;;;;;;;;;;26.87;67.36;99889.22;4394426;32;34150;-89